createdAt,value
2018-09-01T00:02:03.678Z,15.20
2018-09-01T00:04:31.844Z,15.20
2018-09-01T00:07:00.056Z,15.20
2018-09-01T00:09:29.230Z,15.20
2018-09-01T00:11:57.397Z,15.10
2018-09-01T00:14:25.530Z,15.10
2018-09-01T00:16:53.595Z,15.10
2018-09-01T00:19:21.745Z,15.00
2018-09-01T00:21:49.818Z,15.00
2018-09-01T00:24:17.997Z,15.00
2018-09-01T00:26:46.132Z,15.00
2018-09-01T00:29:14.915Z,15.00
2018-09-01T00:31:43.075Z,14.90
2018-09-01T00:34:11.244Z,14.90
2018-09-01T00:36:39.427Z,14.90
2018-09-01T00:39:08.475Z,14.90
2018-09-01T00:41:36.992Z,14.90
2018-09-01T00:44:05.108Z,14.90
2018-09-01T00:46:33.996Z,14.80
2018-09-01T00:49:02.103Z,14.70
2018-09-01T00:51:30.256Z,14.70
2018-09-01T00:53:58.476Z,14.80
2018-09-01T00:56:26.713Z,14.80
2018-09-01T00:58:54.864Z,14.80
2018-09-01T01:01:23.008Z,14.80
2018-09-01T01:03:51.207Z,14.80
2018-09-01T01:06:19.320Z,14.80
2018-09-01T01:08:47.412Z,14.80
2018-09-01T01:11:17.458Z,14.80
2018-09-01T01:13:45.881Z,14.80
2018-09-01T01:16:14.270Z,14.80
2018-09-01T01:18:42.433Z,14.80
2018-09-01T01:21:10.625Z,14.80
2018-09-01T01:23:38.691Z,14.80
2018-09-01T01:26:06.823Z,14.80
2018-09-01T01:28:34.996Z,14.80
2018-09-01T01:31:03.249Z,14.80
2018-09-01T01:33:31.416Z,14.70
2018-09-01T01:35:59.588Z,14.60
2018-09-01T01:38:27.705Z,14.60
2018-09-01T01:40:55.838Z,14.50
2018-09-01T01:43:24.000Z,14.50
2018-09-01T01:45:52.137Z,14.40
2018-09-01T01:48:20.340Z,14.40
2018-09-01T01:50:48.573Z,14.30
2018-09-01T01:53:16.697Z,14.30
2018-09-01T01:55:44.865Z,14.20
2018-09-01T01:58:12.991Z,14.30
2018-09-01T02:00:41.152Z,14.20
2018-09-01T02:03:09.336Z,14.20
2018-09-01T02:05:37.545Z,14.30
2018-09-01T02:08:05.666Z,14.20
2018-09-01T02:10:33.811Z,14.30
2018-09-01T02:13:01.907Z,14.20
2018-09-01T02:15:30.106Z,14.10
2018-09-01T02:17:58.360Z,14.10
2018-09-01T02:20:26.441Z,14.00
2018-09-01T02:22:54.727Z,13.90
2018-09-01T02:25:22.900Z,13.90
2018-09-01T02:27:51.066Z,13.90
2018-09-01T02:30:19.273Z,13.90
2018-09-01T02:32:47.509Z,13.90
2018-09-01T02:35:15.734Z,13.90
2018-09-01T02:37:43.943Z,13.80
2018-09-01T02:40:12.100Z,13.80
2018-09-01T02:42:40.202Z,13.80
2018-09-01T02:45:08.294Z,13.70
2018-09-01T02:47:36.540Z,13.70
2018-09-01T02:50:04.617Z,13.70
2018-09-01T02:52:32.682Z,13.70
2018-09-01T02:55:00.784Z,13.70
2018-09-01T02:57:29.018Z,13.60
2018-09-01T02:59:57.141Z,13.60
2018-09-01T03:02:30.912Z,13.50
2018-09-01T03:04:59.011Z,13.50
2018-09-01T03:07:27.196Z,13.40
2018-09-01T03:09:55.380Z,13.30
2018-09-01T03:12:23.544Z,13.30
2018-09-01T03:14:51.713Z,13.30
2018-09-01T03:17:19.877Z,13.30
2018-09-01T03:19:47.955Z,13.20
2018-09-01T03:22:16.088Z,13.20
2018-09-01T03:24:44.147Z,13.20
2018-09-01T03:27:12.279Z,13.20
2018-09-01T03:29:40.423Z,13.10
2018-09-01T03:32:08.565Z,13.10
2018-09-01T03:34:36.682Z,13.10
2018-09-01T03:37:05.006Z,13.10
2018-09-01T03:39:33.133Z,13.10
2018-09-01T03:42:01.311Z,13.00
2018-09-01T03:44:29.600Z,13.00
2018-09-01T03:46:57.783Z,13.00
2018-09-01T03:49:25.941Z,13.00
2018-09-01T03:51:54.129Z,13.00
2018-09-01T03:54:22.442Z,13.00
2018-09-01T03:56:50.546Z,12.90
2018-09-01T03:59:18.656Z,12.90
2018-09-01T04:01:46.777Z,12.80
2018-09-01T04:04:14.893Z,12.70
2018-09-01T04:06:43.074Z,12.70
2018-09-01T04:09:11.260Z,12.70
2018-09-01T04:11:39.457Z,12.70
2018-09-01T04:14:07.693Z,12.60
2018-09-01T04:16:36.116Z,12.60
2018-09-01T04:19:08.682Z,12.70
2018-09-01T04:21:37.886Z,12.70
2018-09-01T04:24:06.246Z,12.70
2018-09-01T04:26:34.429Z,12.70
2018-09-01T04:29:02.633Z,12.70
2018-09-01T04:31:30.707Z,12.70
2018-09-01T04:33:58.946Z,12.80
2018-09-01T04:36:27.139Z,12.80
2018-09-01T04:38:55.820Z,12.90
2018-09-01T04:41:24.064Z,12.90
2018-09-01T04:43:52.237Z,12.90
2018-09-01T04:46:20.458Z,12.90
2018-09-01T04:48:48.650Z,12.90
2018-09-01T04:51:17.027Z,13.00
2018-09-01T04:53:45.156Z,13.00
2018-09-01T04:56:14.637Z,13.10
2018-09-01T04:58:42.872Z,13.10
2018-09-01T05:01:11.131Z,13.10
2018-09-01T05:03:39.524Z,13.10
2018-09-01T05:06:07.736Z,13.20
2018-09-01T05:08:35.845Z,13.20
2018-09-01T05:11:04.030Z,13.20
2018-09-01T05:13:32.131Z,13.30
2018-09-01T05:16:00.247Z,13.30
2018-09-01T05:18:28.408Z,13.30
2018-09-01T05:20:56.496Z,13.30
2018-09-01T05:23:24.792Z,13.30
2018-09-01T05:25:53.037Z,13.30
2018-09-01T05:28:21.196Z,13.40
2018-09-01T05:30:49.291Z,13.40
2018-09-01T05:33:17.444Z,13.40
2018-09-01T05:35:47.364Z,13.40
2018-09-01T05:38:15.540Z,13.40
2018-09-01T05:40:43.663Z,13.40
2018-09-01T05:43:11.747Z,13.50
2018-09-01T05:45:39.973Z,13.40
2018-09-01T05:48:08.130Z,13.50
2018-09-01T05:50:37.021Z,13.40
2018-09-01T05:53:05.173Z,13.40
2018-09-01T05:55:33.349Z,13.40
2018-09-01T05:58:01.563Z,13.50
2018-09-01T06:00:34.049Z,13.50
2018-09-01T06:03:02.069Z,13.60
2018-09-01T06:05:30.722Z,13.70
2018-09-01T06:07:58.861Z,13.80
2018-09-01T06:10:27.042Z,13.90
2018-09-01T06:12:55.255Z,13.90
2018-09-01T06:15:23.404Z,14.00
2018-09-01T06:17:51.587Z,14.10
2018-09-01T06:20:19.623Z,14.00
2018-09-01T06:22:47.798Z,14.00
2018-09-01T06:25:15.895Z,14.20
2018-09-01T06:27:47.505Z,14.20
2018-09-01T06:30:24.715Z,14.30
2018-09-01T06:32:52.900Z,14.40
2018-09-01T06:35:21.126Z,14.50
2018-09-01T06:37:49.365Z,14.50
2018-09-01T06:40:17.542Z,14.50
2018-09-01T06:42:45.872Z,14.60
2018-09-01T06:45:14.039Z,14.60
2018-09-01T06:47:42.220Z,14.70
2018-09-01T06:50:10.323Z,14.60
2018-09-01T06:52:38.420Z,14.80
2018-09-01T06:55:06.649Z,14.80
2018-09-01T06:57:34.805Z,14.90
2018-09-01T07:00:02.887Z,14.80
2018-09-01T07:02:31.138Z,14.80
2018-09-01T07:04:59.264Z,14.90
2018-09-01T07:07:27.601Z,14.90
2018-09-01T07:09:55.808Z,14.90
2018-09-01T07:12:23.954Z,14.90
2018-09-01T07:14:52.146Z,14.90
2018-09-01T07:17:20.256Z,15.00
2018-09-01T07:19:48.434Z,15.10
2018-09-01T07:22:16.626Z,15.20
2018-09-01T07:24:44.829Z,15.40
2018-09-01T07:27:12.985Z,15.70
2018-09-01T07:29:41.107Z,15.80
2018-09-01T07:32:09.245Z,16.00
2018-09-01T07:34:37.367Z,16.10
2018-09-01T07:37:05.515Z,16.20
2018-09-01T07:39:33.728Z,16.20
2018-09-01T07:42:01.920Z,16.10
2018-09-01T07:44:30.364Z,16.00
2018-09-01T07:46:58.485Z,16.10
2018-09-01T07:49:26.658Z,16.00
2018-09-01T07:51:55.103Z,16.00
2018-09-01T07:54:23.332Z,16.00
2018-09-01T07:56:51.509Z,16.00
2018-09-01T07:59:19.741Z,16.20
2018-09-01T08:01:47.935Z,16.30
2018-09-01T08:04:16.189Z,16.20
2018-09-01T08:06:44.414Z,16.30
2018-09-01T08:09:12.843Z,16.40
2018-09-01T08:11:41.056Z,16.20
2018-09-01T08:14:09.354Z,16.20
2018-09-01T08:16:37.415Z,16.10
2018-09-01T08:19:05.904Z,16.10
2018-09-01T08:21:33.971Z,16.20
2018-09-01T08:24:02.182Z,16.20
2018-09-01T08:26:30.308Z,16.20
2018-09-01T08:28:58.426Z,16.20
2018-09-01T08:31:26.499Z,16.10
2018-09-01T08:33:54.613Z,16.10
2018-09-01T08:36:22.735Z,16.00
2018-09-01T08:38:50.812Z,16.00
2018-09-01T08:41:18.945Z,16.10
2018-09-01T08:43:47.217Z,16.00
2018-09-01T08:46:15.398Z,16.00
2018-09-01T08:48:43.572Z,16.00
2018-09-01T08:51:11.844Z,16.20
2018-09-01T08:53:39.963Z,16.30
2018-09-01T08:56:08.074Z,16.40
2018-09-01T08:58:36.258Z,16.40
2018-09-01T09:01:04.421Z,16.60
2018-09-01T09:03:32.746Z,16.60
2018-09-01T09:06:00.840Z,16.70
2018-09-01T09:08:28.932Z,16.70
2018-09-01T09:10:57.088Z,16.70
2018-09-01T09:13:25.228Z,16.70
2018-09-01T09:15:53.311Z,16.60
2018-09-01T09:18:21.399Z,16.50
2018-09-01T09:20:49.605Z,16.60
2018-09-01T09:23:17.751Z,16.60
2018-09-01T09:25:45.824Z,16.60
2018-09-01T09:28:13.975Z,16.60
2018-09-01T09:30:42.064Z,16.60
2018-09-01T09:33:10.251Z,16.60
2018-09-01T09:35:38.929Z,16.60
2018-09-01T09:38:07.024Z,16.60
2018-09-01T09:40:35.260Z,16.60
2018-09-01T09:43:03.405Z,16.60
2018-09-01T09:45:31.551Z,16.60
2018-09-01T09:47:59.738Z,16.60
2018-09-01T09:50:27.892Z,16.60
2018-09-01T09:52:56.107Z,16.60
2018-09-01T09:55:24.249Z,16.60
2018-09-01T09:57:52.490Z,16.50
2018-09-01T10:00:26.218Z,16.60
2018-09-01T10:02:54.409Z,16.70
2018-09-01T10:05:22.627Z,16.70
2018-09-01T10:07:50.751Z,16.90
2018-09-01T10:10:18.952Z,16.90
2018-09-01T10:12:47.145Z,16.70
2018-09-01T10:15:15.504Z,16.60
2018-09-01T10:17:43.679Z,16.70
2018-09-01T10:20:11.925Z,16.60
2018-09-01T10:22:39.904Z,16.80
2018-09-01T10:25:08.002Z,16.80
2018-09-01T10:27:36.156Z,16.70
2018-09-01T10:30:04.570Z,16.90
2018-09-01T10:32:32.692Z,17.10
2018-09-01T10:35:00.924Z,17.10
2018-09-01T10:37:29.167Z,17.00
2018-09-01T10:39:57.347Z,16.90
2018-09-01T10:42:25.528Z,17.10
2018-09-01T10:44:53.692Z,17.20
2018-09-01T10:47:21.876Z,17.10
2018-09-01T10:49:50.044Z,17.10
2018-09-01T10:52:18.508Z,16.90
2018-09-01T10:54:46.733Z,16.90
2018-09-01T10:57:14.911Z,17.00
2018-09-01T10:59:43.267Z,17.10
2018-09-01T11:02:11.333Z,17.10
2018-09-01T11:04:39.498Z,16.90
2018-09-01T11:07:08.799Z,16.90
2018-09-01T11:09:37.890Z,16.80
2018-09-01T11:12:06.221Z,16.80
2018-09-01T11:14:34.346Z,16.80
2018-09-01T11:17:02.525Z,17.00
2018-09-01T11:19:30.712Z,17.10
2018-09-01T11:21:58.893Z,17.10
2018-09-01T11:24:27.088Z,17.20
2018-09-01T11:26:55.373Z,17.20
2018-09-01T11:29:23.822Z,17.00
2018-09-01T11:31:51.975Z,16.90
2018-09-01T11:34:20.017Z,16.90
2018-09-01T11:36:48.147Z,17.00
2018-09-01T11:39:16.375Z,17.00
2018-09-01T11:41:44.472Z,17.00
2018-09-01T11:44:12.793Z,17.00
2018-09-01T11:46:40.903Z,17.10
2018-09-01T11:49:09.152Z,17.30
2018-09-01T11:51:37.290Z,17.30
2018-09-01T11:54:05.476Z,17.40
2018-09-01T11:56:33.668Z,17.30
2018-09-01T11:59:01.800Z,16.90
2018-09-01T12:01:29.985Z,16.80
2018-09-01T12:03:58.302Z,16.80
2018-09-01T12:06:26.407Z,16.80
2018-09-01T12:08:54.679Z,16.50
2018-09-01T12:11:22.765Z,16.40
2018-09-01T12:13:50.962Z,16.30
2018-09-01T12:16:19.174Z,16.30
2018-09-01T12:18:47.263Z,16.40
2018-09-01T12:21:15.439Z,16.40
2018-09-01T12:23:43.582Z,16.60
2018-09-01T12:26:11.708Z,16.70
2018-09-01T12:28:39.916Z,16.80
2018-09-01T12:31:08.638Z,16.80
2018-09-01T12:33:36.856Z,16.80
2018-09-01T12:36:05.371Z,16.80
2018-09-01T12:38:33.589Z,16.70
2018-09-01T12:41:01.787Z,16.90
2018-09-01T12:43:29.975Z,16.80
2018-09-01T12:45:58.160Z,16.70
2018-09-01T12:48:26.288Z,16.70
2018-09-01T12:50:54.333Z,16.80
2018-09-01T12:53:22.465Z,17.00
2018-09-01T12:55:50.690Z,16.80
2018-09-01T12:58:18.904Z,16.70
2018-09-01T13:00:47.256Z,16.70
2018-09-01T13:03:15.363Z,16.70
2018-09-01T13:05:43.531Z,16.70
2018-09-01T13:08:11.725Z,16.60
2018-09-01T13:10:40.014Z,16.50
2018-09-01T13:13:08.394Z,16.50
2018-09-01T13:15:36.556Z,16.50
2018-09-01T13:18:04.742Z,16.50
2018-09-01T13:20:32.816Z,16.40
2018-09-01T13:23:01.153Z,16.40
2018-09-01T13:25:29.726Z,16.40
2018-09-01T13:27:57.874Z,16.30
2018-09-01T13:30:25.991Z,16.30
2018-09-01T13:32:54.181Z,16.20
2018-09-01T13:35:23.276Z,16.20
2018-09-01T13:37:51.518Z,16.20
2018-09-01T13:40:19.555Z,16.30
2018-09-01T13:42:47.695Z,16.30
2018-09-01T13:45:16.176Z,16.30
2018-09-01T13:47:44.346Z,16.30
2018-09-01T13:50:12.507Z,16.10
2018-09-01T13:52:40.605Z,15.90
2018-09-01T13:55:08.836Z,15.90
2018-09-01T13:57:36.929Z,16.00
2018-09-01T14:00:05.544Z,16.00
2018-09-01T14:02:33.717Z,15.90
2018-09-01T14:05:01.947Z,15.80
2018-09-01T14:07:30.061Z,15.90
2018-09-01T14:09:58.268Z,15.90
2018-09-01T14:12:26.385Z,15.70
2018-09-01T14:14:54.798Z,15.70
2018-09-01T14:17:22.820Z,15.60
2018-09-01T14:19:50.942Z,15.70
2018-09-01T14:22:19.124Z,15.80
2018-09-01T14:24:47.284Z,15.80
2018-09-01T14:27:15.424Z,15.70
2018-09-01T14:29:43.501Z,15.70
2018-09-01T14:32:11.655Z,15.60
2018-09-01T14:34:39.849Z,15.70
2018-09-01T14:37:08.615Z,15.80
2018-09-01T14:39:36.804Z,15.80
2018-09-01T14:42:04.871Z,15.80
2018-09-01T14:44:33.275Z,15.70
2018-09-01T14:47:01.543Z,15.70
2018-09-01T14:49:29.864Z,15.60
2018-09-01T14:51:58.034Z,15.50
2018-09-01T14:54:26.270Z,15.50
2018-09-01T14:56:54.478Z,15.60
2018-09-01T14:59:22.719Z,15.70
2018-09-01T15:01:50.865Z,15.60
2018-09-01T15:04:19.073Z,15.60
2018-09-01T15:06:47.253Z,15.50
2018-09-01T15:09:15.415Z,15.40
2018-09-01T15:11:43.492Z,15.30
2018-09-01T15:14:12.597Z,15.30
2018-09-01T15:16:40.864Z,15.20
2018-09-01T15:19:09.276Z,15.20
2018-09-01T15:21:37.383Z,15.20
2018-09-01T15:24:05.915Z,15.20
2018-09-01T15:26:34.080Z,15.10
2018-09-01T15:29:02.304Z,15.10
2018-09-01T15:31:30.470Z,15.10
2018-09-01T15:33:58.619Z,15.20
2018-09-01T15:36:26.740Z,15.20
2018-09-01T15:38:54.856Z,15.30
2018-09-01T15:41:22.996Z,15.30
2018-09-01T15:43:51.081Z,15.30
2018-09-01T15:46:19.183Z,15.20
2018-09-01T15:48:47.283Z,15.20
2018-09-01T15:51:15.415Z,15.30
2018-09-01T15:53:43.608Z,15.30
2018-09-01T15:56:11.836Z,15.30
2018-09-01T15:58:39.937Z,15.20
2018-09-01T16:01:08.116Z,15.20
2018-09-01T16:03:36.441Z,15.30
2018-09-01T16:06:04.642Z,15.30
2018-09-01T16:08:32.777Z,15.40
2018-09-01T16:11:00.932Z,15.40
2018-09-01T16:13:29.043Z,15.40
2018-09-01T16:15:57.219Z,15.40
2018-09-01T16:18:25.377Z,15.50
2018-09-01T16:20:53.440Z,15.60
2018-09-01T16:23:21.656Z,15.60
2018-09-01T16:25:49.804Z,15.60
2018-09-01T16:28:17.971Z,15.60
2018-09-01T16:30:46.213Z,15.60
2018-09-01T16:33:14.421Z,15.60
2018-09-01T16:35:42.509Z,15.60
2018-09-01T16:38:10.777Z,15.50
2018-09-01T16:40:38.922Z,15.50
2018-09-01T16:43:07.041Z,15.50
2018-09-01T16:45:35.216Z,15.40
2018-09-01T16:48:03.329Z,15.40
2018-09-01T16:50:31.613Z,15.30
2018-09-01T16:52:59.817Z,15.30
2018-09-01T16:55:27.945Z,15.20
2018-09-01T16:57:56.230Z,15.20
2018-09-01T17:00:24.437Z,15.10
2018-09-01T17:02:52.616Z,15.00
2018-09-01T17:05:20.714Z,15.00
2018-09-01T17:07:48.768Z,14.90
2018-09-01T17:10:16.896Z,15.00
2018-09-01T17:12:45.122Z,15.00
2018-09-01T17:15:13.328Z,15.10
2018-09-01T17:17:41.380Z,15.00
2018-09-01T17:20:09.489Z,15.00
2018-09-01T17:22:37.666Z,15.00
2018-09-01T17:25:06.145Z,14.80
2018-09-01T17:27:34.356Z,14.80
2018-09-01T17:30:02.537Z,14.90
2018-09-01T17:32:30.667Z,14.90
2018-09-01T17:34:58.843Z,14.90
2018-09-01T17:37:27.037Z,14.90
2018-09-01T17:39:55.149Z,14.80
2018-09-01T17:42:23.237Z,14.80
2018-09-01T17:44:51.341Z,14.70
2018-09-01T17:47:19.503Z,14.70
2018-09-01T17:49:47.610Z,14.60
2018-09-01T17:52:15.870Z,14.60
2018-09-01T17:54:44.001Z,14.40
2018-09-01T17:57:12.129Z,14.30
2018-09-01T17:59:40.304Z,14.30
2018-09-01T18:02:08.571Z,14.30
2018-09-01T18:04:36.638Z,14.30
2018-09-01T18:07:04.852Z,14.30
2018-09-01T18:09:33.047Z,14.30
2018-09-01T18:12:01.120Z,14.30
2018-09-01T18:14:29.236Z,14.30
2018-09-01T18:16:57.421Z,14.30
2018-09-01T18:19:25.699Z,14.30
2018-09-01T18:21:53.845Z,14.20
2018-09-01T18:24:21.914Z,14.20
2018-09-01T18:26:50.071Z,14.20
2018-09-01T18:29:18.198Z,14.20
2018-09-01T18:31:46.304Z,14.30
2018-09-01T18:34:14.472Z,14.30
2018-09-01T18:36:42.659Z,14.30
2018-09-01T18:39:11.505Z,14.30
2018-09-01T18:41:39.656Z,14.30
2018-09-01T18:44:07.739Z,14.40
2018-09-01T18:46:36.009Z,14.40
2018-09-01T18:49:04.304Z,14.30
2018-09-01T18:51:32.460Z,14.30
2018-09-01T18:54:00.652Z,14.30
2018-09-01T18:56:28.876Z,14.30
2018-09-01T18:58:57.029Z,14.20
2018-09-01T19:01:25.192Z,14.20
2018-09-01T19:03:53.441Z,14.20
2018-09-01T19:06:21.631Z,14.30
2018-09-01T19:08:49.927Z,14.20
2018-09-01T19:11:18.284Z,14.20
2018-09-01T19:13:46.445Z,14.20
2018-09-01T19:16:14.508Z,14.20
2018-09-01T19:18:42.595Z,14.20
2018-09-01T19:21:10.744Z,14.20
2018-09-01T19:23:38.779Z,14.20
2018-09-01T19:26:06.906Z,14.10
2018-09-01T19:28:35.210Z,14.10
2018-09-01T19:31:03.443Z,14.10
2018-09-01T19:33:31.723Z,14.10
2018-09-01T19:35:59.958Z,14.10
2018-09-01T19:38:28.232Z,14.10
2018-09-01T19:40:56.400Z,14.10
2018-09-01T19:43:24.524Z,14.10
2018-09-01T19:45:52.621Z,14.10
2018-09-01T19:48:20.800Z,14.10
2018-09-01T19:50:48.880Z,14.10
2018-09-01T19:53:17.040Z,14.10
2018-09-01T19:55:45.230Z,14.00
2018-09-01T19:58:13.441Z,14.00
2018-09-01T20:00:41.596Z,14.10
2018-09-01T20:03:09.783Z,14.10
2018-09-01T20:05:37.953Z,14.10
2018-09-01T20:08:06.120Z,14.10
2018-09-01T20:10:34.286Z,14.10
2018-09-01T20:13:02.399Z,14.10
2018-09-01T20:15:30.489Z,14.10
2018-09-01T20:17:58.556Z,14.10
2018-09-01T20:20:26.623Z,14.10
2018-09-01T20:22:54.703Z,14.10
2018-09-01T20:25:22.873Z,14.20
2018-09-01T20:27:50.964Z,14.20
2018-09-01T20:30:19.223Z,14.30
2018-09-01T20:32:47.512Z,14.30
2018-09-01T20:35:21.215Z,14.40
2018-09-01T20:37:49.445Z,14.40
2018-09-01T20:40:17.611Z,14.40
2018-09-01T20:42:45.765Z,14.50
2018-09-01T20:45:14.036Z,14.40
2018-09-01T20:47:42.270Z,14.40
2018-09-01T20:50:10.485Z,14.30
2018-09-01T20:52:38.636Z,14.30
2018-09-01T20:55:07.722Z,14.30
2018-09-01T20:57:35.824Z,14.30
2018-09-01T21:00:04.721Z,14.30
2018-09-01T21:02:32.851Z,14.30
2018-09-01T21:05:00.953Z,14.30
2018-09-01T21:07:29.098Z,14.30
2018-09-01T21:09:57.207Z,14.30
2018-09-01T21:12:25.380Z,14.30
2018-09-01T21:14:53.527Z,14.40
2018-09-01T21:17:21.720Z,14.40
2018-09-01T21:19:49.880Z,14.30
2018-09-01T21:22:17.996Z,14.40
2018-09-01T21:24:46.165Z,14.40
2018-09-01T21:27:14.308Z,14.30
2018-09-01T21:29:42.475Z,14.40
2018-09-01T21:32:10.580Z,14.40
2018-09-01T21:34:38.864Z,14.40
2018-09-01T21:37:07.016Z,14.40
2018-09-01T21:39:35.242Z,14.40
2018-09-01T21:42:03.361Z,14.40
2018-09-01T21:44:31.533Z,14.40
2018-09-01T21:46:59.762Z,14.40
2018-09-01T21:49:27.882Z,14.40
2018-09-01T21:51:56.055Z,14.40
2018-09-01T21:54:24.190Z,14.40
2018-09-01T21:56:52.352Z,14.40
2018-09-01T21:59:20.490Z,14.40
2018-09-01T22:01:54.132Z,14.40
2018-09-01T22:04:22.319Z,14.40
2018-09-01T22:06:50.465Z,14.40
2018-09-01T22:09:18.678Z,14.40
2018-09-01T22:11:46.793Z,14.50
2018-09-01T22:14:14.937Z,14.50
2018-09-01T22:16:43.068Z,14.50
2018-09-01T22:19:11.159Z,14.50
2018-09-01T22:21:39.228Z,14.50
2018-09-01T22:24:07.315Z,14.50
2018-09-01T22:26:35.528Z,14.50
2018-09-01T22:29:03.704Z,14.40
2018-09-01T22:31:31.955Z,14.50
2018-09-01T22:34:00.066Z,14.40
2018-09-01T22:36:28.274Z,14.40
2018-09-01T22:38:56.404Z,14.40
2018-09-01T22:41:24.530Z,14.40
2018-09-01T22:43:52.663Z,14.40
2018-09-01T22:46:20.811Z,14.40
2018-09-01T22:48:48.981Z,14.40
2018-09-01T22:51:17.209Z,14.40
2018-09-01T22:53:45.363Z,14.40
2018-09-01T22:56:13.471Z,14.40
2018-09-01T22:58:41.572Z,14.40
2018-09-01T23:01:09.666Z,14.40
2018-09-01T23:03:37.877Z,14.50
2018-09-01T23:06:06.102Z,14.50
2018-09-01T23:08:34.297Z,14.50
2018-09-01T23:11:02.493Z,14.50
2018-09-01T23:13:30.707Z,14.50
2018-09-01T23:15:58.810Z,14.50
2018-09-01T23:18:27.027Z,14.50
2018-09-01T23:20:55.094Z,14.50
2018-09-01T23:23:23.220Z,14.50
2018-09-01T23:25:51.494Z,14.50
2018-09-01T23:28:19.709Z,14.50
2018-09-01T23:30:47.930Z,14.50
2018-09-01T23:33:16.124Z,14.50
2018-09-01T23:35:44.344Z,14.50
2018-09-01T23:38:12.496Z,14.50
2018-09-01T23:40:40.611Z,14.50
2018-09-01T23:43:08.751Z,14.50
2018-09-01T23:45:36.984Z,14.50
2018-09-01T23:48:05.198Z,14.50
2018-09-01T23:50:33.374Z,14.50
2018-09-01T23:53:01.545Z,14.50
2018-09-01T23:55:29.653Z,14.50
2018-09-01T23:57:57.756Z,14.50
